Archival Weather

Chicago O'Hare International

Chicago, Illinois (KORD)

Report from: Friday, December 16, 2022 11:39 PM UTC
Current time: Saturday, June 22, 2024 12:36 AM UTC

Current weather – Weather history – Daily summaries
Weather forecast

Present weatherLight snow
Temperature-2.2°C (28.0°F)
Wind chill-9.3°C (15.3°F)
Dew point-7.8°C (18.0°F)
Winds 16 kts (8.2 m/s, 18.4 mph) Southwest (220°)
Wind gusts 26 kts (13.4 m/s, 29.9 mph)
Peak wind 27 kts (13.9 m/s, 31.1 mph) Southwest (220°) at 23:26
Visibility7 mi. (11.3 km)
Clouds Ceiling: Overcast 2,500 ft. (762 m)
Altimeter29.68 in.Hg (1005 mB)
PrecipitiationTrace
Relative humidity65 %
Density altitude-1,776 ft. (-541 m)
Remarks System requires maintenance
Automated weather observing station with precipitation discriminator
Flight conditions Marginal Visual Meteorological Conditions
Raw dataKORD 162339Z 22016G26KT 7SM -SN OVC025 M02/M08 A2968 RMK AO2 PK WND 22027/2326 P0000 T10221078 $
An error has occurred. This application may no longer respond until reloaded. Reload 🗙